sensor_id;sensor_type;location;lat;lon;timestamp;temperature;humidity
18365;DHT22;9309;52.126;11.616;2022-12-28T00:01:04;4.60;82.40
18365;DHT22;9309;52.126;11.616;2022-12-28T00:03:31;4.50;82.70
18365;DHT22;9309;52.126;11.616;2022-12-28T00:05:58;4.50;83.00
18365;DHT22;9309;52.126;11.616;2022-12-28T00:08:24;4.50;83.30
18365;DHT22;9309;52.126;11.616;2022-12-28T00:10:51;4.40;83.20
18365;DHT22;9309;52.126;11.616;2022-12-28T00:13:21;4.50;82.60
18365;DHT22;9309;52.126;11.616;2022-12-28T00:15:48;4.60;82.40
18365;DHT22;9309;52.126;11.616;2022-12-28T00:18:14;4.50;82.30
18365;DHT22;9309;52.126;11.616;2022-12-28T00:20:41;4.50;81.90
18365;DHT22;9309;52.126;11.616;2022-12-28T00:23:08;4.40;82.30
18365;DHT22;9309;52.126;11.616;2022-12-28T00:25:35;4.30;82.50
18365;DHT22;9309;52.126;11.616;2022-12-28T00:28:02;4.30;82.30
18365;DHT22;9309;52.126;11.616;2022-12-28T00:30:30;4.30;82.60
18365;DHT22;9309;52.126;11.616;2022-12-28T00:32:56;4.20;82.80
18365;DHT22;9309;52.126;11.616;2022-12-28T00:35:23;4.30;83.00
18365;DHT22;9309;52.126;11.616;2022-12-28T00:37:49;4.30;82.70
18365;DHT22;9309;52.126;11.616;2022-12-28T00:40:16;4.30;82.70
18365;DHT22;9309;52.126;11.616;2022-12-28T00:42:43;4.20;82.40
18365;DHT22;9309;52.126;11.616;2022-12-28T00:45:10;4.30;82.50
18365;DHT22;9309;52.126;11.616;2022-12-28T00:47:38;4.20;82.50
18365;DHT22;9309;52.126;11.616;2022-12-28T00:50:05;4.20;81.80
18365;DHT22;9309;52.126;11.616;2022-12-28T00:52:32;4.30;81.50
18365;DHT22;9309;52.126;11.616;2022-12-28T00:54:58;4.30;81.50
18365;DHT22;9309;52.126;11.616;2022-12-28T00:57:25;4.30;81.30
18365;DHT22;9309;52.126;11.616;2022-12-28T00:59:52;4.20;81.30
18365;DHT22;9309;52.126;11.616;2022-12-28T01:02:18;4.20;81.30
18365;DHT22;9309;52.126;11.616;2022-12-28T01:04:49;4.30;81.30
18365;DHT22;9309;52.126;11.616;2022-12-28T01:07:15;4.30;81.10
18365;DHT22;9309;52.126;11.616;2022-12-28T01:09:42;4.30;81.30
18365;DHT22;9309;52.126;11.616;2022-12-28T01:12:09;4.20;81.20
18365;DHT22;9309;52.126;11.616;2022-12-28T01:14:35;4.20;81.60
18365;DHT22;9309;52.126;11.616;2022-12-28T01:17:02;4.20;81.60
18365;DHT22;9309;52.126;11.616;2022-12-28T01:19:29;4.10;82.20
18365;DHT22;9309;52.126;11.616;2022-12-28T01:21:58;4.10;82.10
18365;DHT22;9309;52.126;11.616;2022-12-28T01:24:25;4.10;82.20
18365;DHT22;9309;52.126;11.616;2022-12-28T01:26:51;4.10;81.90
18365;DHT22;9309;52.126;11.616;2022-12-28T01:29:18;4.00;82.10
18365;DHT22;9309;52.126;11.616;2022-12-28T01:31:45;4.10;82.00
18365;DHT22;9309;52.126;11.616;2022-12-28T01:34:11;4.10;81.80
18365;DHT22;9309;52.126;11.616;2022-12-28T01:36:38;4.10;81.70
18365;DHT22;9309;52.126;11.616;2022-12-28T01:39:06;4.00;81.70
18365;DHT22;9309;52.126;11.616;2022-12-28T01:41:38;4.10;81.80
18365;DHT22;9309;52.126;11.616;2022-12-28T01:44:36;4.00;81.80
18365;DHT22;9309;52.126;11.616;2022-12-28T01:47:06;4.10;81.70
18365;DHT22;9309;52.126;11.616;2022-12-28T01:49:37;4.00;82.00
18365;DHT22;9309;52.126;11.616;2022-12-28T01:52:07;4.00;81.70
18365;DHT22;9309;52.126;11.616;2022-12-28T01:54:39;4.00;81.80
18365;DHT22;9309;52.126;11.616;2022-12-28T01:57:07;4.00;81.90
18365;DHT22;9309;52.126;11.616;2022-12-28T01:59:38;4.00;81.70
18365;DHT22;9309;52.126;11.616;2022-12-28T02:02:08;4.00;81.80
18365;DHT22;9309;52.126;11.616;2022-12-28T02:04:35;4.00;81.80
18365;DHT22;9309;52.126;11.616;2022-12-28T02:07:01;4.00;81.40
18365;DHT22;9309;52.126;11.616;2022-12-28T02:09:30;3.90;82.00
18365;DHT22;9309;52.126;11.616;2022-12-28T02:12:02;3.90;82.10
18365;DHT22;9309;52.126;11.616;2022-12-28T02:14:31;3.90;82.00
18365;DHT22;9309;52.126;11.616;2022-12-28T02:16:58;3.90;82.50
18365;DHT22;9309;52.126;11.616;2022-12-28T02:19:30;3.80;82.40
18365;DHT22;9309;52.126;11.616;2022-12-28T02:22:12;3.80;82.40
18365;DHT22;9309;52.126;11.616;2022-12-28T02:25:03;3.90;81.70
18365;DHT22;9309;52.126;11.616;2022-12-28T02:27:47;4.00;81.60
18365;DHT22;9309;52.126;11.616;2022-12-28T02:30:20;3.90;81.40
18365;DHT22;9309;52.126;11.616;2022-12-28T02:32:54;3.90;81.70
18365;DHT22;9309;52.126;11.616;2022-12-28T02:35:30;4.00;81.30
18365;DHT22;9309;52.126;11.616;2022-12-28T02:38:03;4.10;81.10
18365;DHT22;9309;52.126;11.616;2022-12-28T02:44:18;4.10;81.00
18365;DHT22;9309;52.126;11.616;2022-12-28T02:47:00;4.20;80.40
18365;DHT22;9309;52.126;11.616;2022-12-28T02:49:44;4.10;80.60
18365;DHT22;9309;52.126;11.616;2022-12-28T02:55:36;4.00;81.20
18365;DHT22;9309;52.126;11.616;2022-12-28T02:58:47;4.00;81.40
18365;DHT22;9309;52.126;11.616;2022-12-28T03:01:30;4.00;81.20
18365;DHT22;9309;52.126;11.616;2022-12-28T03:04:07;4.10;80.90
18365;DHT22;9309;52.126;11.616;2022-12-28T03:06:40;4.10;80.90
18365;DHT22;9309;52.126;11.616;2022-12-28T03:09:29;4.10;80.70
18365;DHT22;9309;52.126;11.616;2022-12-28T03:12:02;4.10;80.90
18365;DHT22;9309;52.126;11.616;2022-12-28T03:14:36;4.10;81.10
18365;DHT22;9309;52.126;11.616;2022-12-28T03:17:06;4.10;81.10
18365;DHT22;9309;52.126;11.616;2022-12-28T03:19:55;4.20;80.90
18365;DHT22;9309;52.126;11.616;2022-12-28T03:22:42;4.20;81.10
18365;DHT22;9309;52.126;11.616;2022-12-28T03:25:30;4.20;81.10
18365;DHT22;9309;52.126;11.616;2022-12-28T03:28:23;4.20;81.10
18365;DHT22;9309;52.126;11.616;2022-12-28T03:31:13;4.30;80.90
18365;DHT22;9309;52.126;11.616;2022-12-28T03:33:47;4.30;80.90
18365;DHT22;9309;52.126;11.616;2022-12-28T03:36:19;4.30;81.20
18365;DHT22;9309;52.126;11.616;2022-12-28T03:38:52;4.30;81.10
18365;DHT22;9309;52.126;11.616;2022-12-28T03:41:25;4.40;81.20
18365;DHT22;9309;52.126;11.616;2022-12-28T03:44:02;4.50;80.40
18365;DHT22;9309;52.126;11.616;2022-12-28T03:46:32;4.40;80.70
18365;DHT22;9309;52.126;11.616;2022-12-28T03:49:01;4.50;80.50
18365;DHT22;9309;52.126;11.616;2022-12-28T03:51:31;4.50;80.30
18365;DHT22;9309;52.126;11.616;2022-12-28T03:54:03;4.50;80.40
18365;DHT22;9309;52.126;11.616;2022-12-28T03:56:29;4.50;80.80
18365;DHT22;9309;52.126;11.616;2022-12-28T03:58:59;4.60;80.50
18365;DHT22;9309;52.126;11.616;2022-12-28T04:01:34;4.60;80.50
18365;DHT22;9309;52.126;11.616;2022-12-28T04:04:02;4.60;80.50
18365;DHT22;9309;52.126;11.616;2022-12-28T04:06:30;4.60;80.50
18365;DHT22;9309;52.126;11.616;2022-12-28T04:08:56;4.60;80.80
18365;DHT22;9309;52.126;11.616;2022-12-28T04:11:26;4.60;80.40
18365;DHT22;9309;52.126;11.616;2022-12-28T04:13:53;4.60;80.80
18365;DHT22;9309;52.126;11.616;2022-12-28T04:16:21;4.60;80.80
18365;DHT22;9309;52.126;11.616;2022-12-28T04:18:47;4.60;81.00
18365;DHT22;9309;52.126;11.616;2022-12-28T04:21:14;4.50;81.40
18365;DHT22;9309;52.126;11.616;2022-12-28T04:23:44;4.50;81.00
18365;DHT22;9309;52.126;11.616;2022-12-28T04:26:16;4.60;80.90
18365;DHT22;9309;52.126;11.616;2022-12-28T04:28:44;4.50;81.30
18365;DHT22;9309;52.126;11.616;2022-12-28T04:31:43;4.50;81.50
18365;DHT22;9309;52.126;11.616;2022-12-28T04:34:13;4.40;81.60
18365;DHT22;9309;52.126;11.616;2022-12-28T04:36:46;4.40;82.00
18365;DHT22;9309;52.126;11.616;2022-12-28T04:39:17;4.40;81.80
18365;DHT22;9309;52.126;11.616;2022-12-28T04:41:43;4.40;82.20
18365;DHT22;9309;52.126;11.616;2022-12-28T04:44:10;4.40;82.20
18365;DHT22;9309;52.126;11.616;2022-12-28T04:46:37;4.40;82.10
18365;DHT22;9309;52.126;11.616;2022-12-28T04:49:04;4.50;82.30
18365;DHT22;9309;52.126;11.616;2022-12-28T04:51:30;4.40;83.10
18365;DHT22;9309;52.126;11.616;2022-12-28T04:53:57;4.40;83.70
18365;DHT22;9309;52.126;11.616;2022-12-28T04:56:26;4.40;84.10
18365;DHT22;9309;52.126;11.616;2022-12-28T04:58:53;4.40;85.00
18365;DHT22;9309;52.126;11.616;2022-12-28T05:01:20;4.30;86.40
18365;DHT22;9309;52.126;11.616;2022-12-28T05:03:47;4.20;86.70
18365;DHT22;9309;52.126;11.616;2022-12-28T05:06:16;4.20;87.30
18365;DHT22;9309;52.126;11.616;2022-12-28T05:08:44;4.20;87.80
18365;DHT22;9309;52.126;11.616;2022-12-28T05:11:13;4.10;88.40
18365;DHT22;9309;52.126;11.616;2022-12-28T05:13:42;4.20;87.80
18365;DHT22;9309;52.126;11.616;2022-12-28T05:16:11;4.20;87.90
18365;DHT22;9309;52.126;11.616;2022-12-28T05:18:38;4.20;88.10
18365;DHT22;9309;52.126;11.616;2022-12-28T05:21:07;4.20;88.20
18365;DHT22;9309;52.126;11.616;2022-12-28T05:23:36;4.20;87.90
18365;DHT22;9309;52.126;11.616;2022-12-28T05:26:03;4.20;87.80
18365;DHT22;9309;52.126;11.616;2022-12-28T05:28:30;4.20;87.90
18365;DHT22;9309;52.126;11.616;2022-12-28T05:31:00;4.20;87.80
18365;DHT22;9309;52.126;11.616;2022-12-28T05:33:27;4.20;87.90
18365;DHT22;9309;52.126;11.616;2022-12-28T05:35:54;4.20;88.20
18365;DHT22;9309;52.126;11.616;2022-12-28T05:38:21;4.20;89.40
18365;DHT22;9309;52.126;11.616;2022-12-28T05:40:48;4.10;89.80
18365;DHT22;9309;52.126;11.616;2022-12-28T05:43:14;4.10;89.60
18365;DHT22;9309;52.126;11.616;2022-12-28T05:45:41;4.10;90.30
18365;DHT22;9309;52.126;11.616;2022-12-28T05:48:09;4.00;90.80
18365;DHT22;9309;52.126;11.616;2022-12-28T05:54:23;4.10;90.30
18365;DHT22;9309;52.126;11.616;2022-12-28T05:56:50;4.10;90.70
18365;DHT22;9309;52.126;11.616;2022-12-28T05:59:16;4.10;90.50
18365;DHT22;9309;52.126;11.616;2022-12-28T06:05:33;4.10;91.20
18365;DHT22;9309;52.126;11.616;2022-12-28T06:07:59;4.20;90.60
18365;DHT22;9309;52.126;11.616;2022-12-28T06:10:26;4.20;90.60
18365;DHT22;9309;52.126;11.616;2022-12-28T06:12:53;4.20;90.20
18365;DHT22;9309;52.126;11.616;2022-12-28T06:15:19;4.30;90.20
18365;DHT22;9309;52.126;11.616;2022-12-28T06:17:46;4.30;90.00
18365;DHT22;9309;52.126;11.616;2022-12-28T06:20:12;4.20;90.30
18365;DHT22;9309;52.126;11.616;2022-12-28T06:22:40;4.20;90.60
18365;DHT22;9309;52.126;11.616;2022-12-28T06:25:08;4.20;90.80
18365;DHT22;9309;52.126;11.616;2022-12-28T06:27:34;4.20;90.60
18365;DHT22;9309;52.126;11.616;2022-12-28T06:30:01;4.20;90.60
18365;DHT22;9309;52.126;11.616;2022-12-28T06:32:28;4.30;90.40
18365;DHT22;9309;52.126;11.616;2022-12-28T06:34:54;4.30;90.30
18365;DHT22;9309;52.126;11.616;2022-12-28T06:37:21;4.30;90.30
18365;DHT22;9309;52.126;11.616;2022-12-28T06:39:49;4.30;90.10
18365;DHT22;9309;52.126;11.616;2022-12-28T06:42:16;4.30;89.70
18365;DHT22;9309;52.126;11.616;2022-12-28T06:44:42;4.30;89.50
18365;DHT22;9309;52.126;11.616;2022-12-28T06:47:09;4.30;90.00
18365;DHT22;9309;52.126;11.616;2022-12-28T06:49:35;4.30;89.60
18365;DHT22;9309;52.126;11.616;2022-12-28T06:52:02;4.30;89.60
18365;DHT22;9309;52.126;11.616;2022-12-28T06:54:29;4.30;89.40
18365;DHT22;9309;52.126;11.616;2022-12-28T06:56:57;4.40;89.30
18365;DHT22;9309;52.126;11.616;2022-12-28T06:59:24;4.40;89.30
18365;DHT22;9309;52.126;11.616;2022-12-28T07:01:50;4.40;89.20
18365;DHT22;9309;52.126;11.616;2022-12-28T07:04:17;4.40;89.20
18365;DHT22;9309;52.126;11.616;2022-12-28T07:06:44;4.40;88.90
18365;DHT22;9309;52.126;11.616;2022-12-28T07:09:13;4.50;89.00
18365;DHT22;9309;52.126;11.616;2022-12-28T07:11:40;4.50;89.20
18365;DHT22;9309;52.126;11.616;2022-12-28T07:14:08;4.50;89.30
18365;DHT22;9309;52.126;11.616;2022-12-28T07:16:34;4.50;89.20
18365;DHT22;9309;52.126;11.616;2022-12-28T07:19:01;4.60;89.10
18365;DHT22;9309;52.126;11.616;2022-12-28T07:21:32;4.60;89.10
18365;DHT22;9309;52.126;11.616;2022-12-28T07:23:59;4.60;89.30
18365;DHT22;9309;52.126;11.616;2022-12-28T07:26:27;4.60;89.20
18365;DHT22;9309;52.126;11.616;2022-12-28T07:28:56;4.70;89.20
18365;DHT22;9309;52.126;11.616;2022-12-28T07:31:26;4.70;88.80
18365;DHT22;9309;52.126;11.616;2022-12-28T07:33:54;4.70;88.90
18365;DHT22;9309;52.126;11.616;2022-12-28T07:36:22;4.80;88.80
18365;DHT22;9309;52.126;11.616;2022-12-28T07:38:50;4.80;88.50
18365;DHT22;9309;52.126;11.616;2022-12-28T07:41:18;4.90;88.70
18365;DHT22;9309;52.126;11.616;2022-12-28T07:43:45;4.80;89.00
18365;DHT22;9309;52.126;11.616;2022-12-28T07:46:13;4.80;88.80
18365;DHT22;9309;52.126;11.616;2022-12-28T07:48:43;4.90;88.70
18365;DHT22;9309;52.126;11.616;2022-12-28T07:51:12;4.90;88.80
18365;DHT22;9309;52.126;11.616;2022-12-28T07:53:39;4.90;88.90
18365;DHT22;9309;52.126;11.616;2022-12-28T07:56:07;4.90;89.10
18365;DHT22;9309;52.126;11.616;2022-12-28T07:58:34;4.90;88.70
18365;DHT22;9309;52.126;11.616;2022-12-28T08:01:05;5.00;88.70
18365;DHT22;9309;52.126;11.616;2022-12-28T08:03:32;5.10;88.30
18365;DHT22;9309;52.126;11.616;2022-12-28T08:06:05;5.20;88.30
18365;DHT22;9309;52.126;11.616;2022-12-28T08:08:34;5.20;88.10
18365;DHT22;9309;52.126;11.616;2022-12-28T08:11:02;5.20;88.30
18365;DHT22;9309;52.126;11.616;2022-12-28T08:13:30;5.20;88.10
18365;DHT22;9309;52.126;11.616;2022-12-28T08:15:57;5.30;88.10
18365;DHT22;9309;52.126;11.616;2022-12-28T08:18:24;5.30;87.90
18365;DHT22;9309;52.126;11.616;2022-12-28T08:20:51;5.40;87.90
18365;DHT22;9309;52.126;11.616;2022-12-28T08:23:19;5.40;88.10
18365;DHT22;9309;52.126;11.616;2022-12-28T08:25:46;5.50;87.80
18365;DHT22;9309;52.126;11.616;2022-12-28T08:28:12;5.50;88.00
18365;DHT22;9309;52.126;11.616;2022-12-28T08:30:39;5.50;88.00
18365;DHT22;9309;52.126;11.616;2022-12-28T08:33:06;5.60;88.10
18365;DHT22;9309;52.126;11.616;2022-12-28T08:35:32;5.60;87.80
18365;DHT22;9309;52.126;11.616;2022-12-28T08:37:59;5.70;88.10
18365;DHT22;9309;52.126;11.616;2022-12-28T08:40:27;5.70;88.40
18365;DHT22;9309;52.126;11.616;2022-12-28T08:42:56;5.70;88.50
18365;DHT22;9309;52.126;11.616;2022-12-28T08:45:23;5.80;87.90
18365;DHT22;9309;52.126;11.616;2022-12-28T08:47:49;5.80;88.30
18365;DHT22;9309;52.126;11.616;2022-12-28T08:50:16;5.70;88.60
18365;DHT22;9309;52.126;11.616;2022-12-28T08:52:43;5.80;89.10
18365;DHT22;9309;52.126;11.616;2022-12-28T08:55:09;5.70;89.60
18365;DHT22;9309;52.126;11.616;2022-12-28T08:57:37;5.70;89.40
18365;DHT22;9309;52.126;11.616;2022-12-28T09:00:05;5.80;89.20
18365;DHT22;9309;52.126;11.616;2022-12-28T09:02:33;6.00;88.60
18365;DHT22;9309;52.126;11.616;2022-12-28T09:05:00;5.90;89.00
18365;DHT22;9309;52.126;11.616;2022-12-28T09:07:26;5.90;89.00
18365;DHT22;9309;52.126;11.616;2022-12-28T09:09:53;5.90;89.20
18365;DHT22;9309;52.126;11.616;2022-12-28T09:12:19;5.90;89.30
18365;DHT22;9309;52.126;11.616;2022-12-28T09:14:47;5.90;88.90
18365;DHT22;9309;52.126;11.616;2022-12-28T09:17:14;6.00;88.60
18365;DHT22;9309;52.126;11.616;2022-12-28T09:19:41;6.10;87.70
18365;DHT22;9309;52.126;11.616;2022-12-28T09:22:07;6.20;87.20
18365;DHT22;9309;52.126;11.616;2022-12-28T09:24:34;6.20;87.50
18365;DHT22;9309;52.126;11.616;2022-12-28T09:27:00;6.20;87.40
18365;DHT22;9309;52.126;11.616;2022-12-28T09:29:27;6.30;87.50
18365;DHT22;9309;52.126;11.616;2022-12-28T09:31:55;6.30;87.30
18365;DHT22;9309;52.126;11.616;2022-12-28T09:34:22;6.40;86.70
18365;DHT22;9309;52.126;11.616;2022-12-28T09:36:49;6.40;86.80
18365;DHT22;9309;52.126;11.616;2022-12-28T09:39:17;6.40;86.60
18365;DHT22;9309;52.126;11.616;2022-12-28T09:41:48;6.50;86.40
18365;DHT22;9309;52.126;11.616;2022-12-28T09:44:29;6.60;85.90
18365;DHT22;9309;52.126;11.616;2022-12-28T09:47:04;6.60;86.10
18365;DHT22;9309;52.126;11.616;2022-12-28T09:49:40;6.80;85.50
18365;DHT22;9309;52.126;11.616;2022-12-28T09:52:21;6.80;85.20
18365;DHT22;9309;52.126;11.616;2022-12-28T09:54:49;6.80;85.30
18365;DHT22;9309;52.126;11.616;2022-12-28T09:57:17;6.90;85.30
18365;DHT22;9309;52.126;11.616;2022-12-28T09:59:45;6.90;85.10
18365;DHT22;9309;52.126;11.616;2022-12-28T10:02:18;7.00;84.70
18365;DHT22;9309;52.126;11.616;2022-12-28T10:04:49;7.00;84.50
18365;DHT22;9309;52.126;11.616;2022-12-28T10:07:16;7.10;84.20
18365;DHT22;9309;52.126;11.616;2022-12-28T10:09:43;7.20;84.00
18365;DHT22;9309;52.126;11.616;2022-12-28T10:12:13;7.20;83.70
18365;DHT22;9309;52.126;11.616;2022-12-28T10:14:40;7.40;83.30
18365;DHT22;9309;52.126;11.616;2022-12-28T10:17:08;7.40;82.70
18365;DHT22;9309;52.126;11.616;2022-12-28T10:19:38;7.50;82.60
18365;DHT22;9309;52.126;11.616;2022-12-28T10:22:07;7.60;82.70
18365;DHT22;9309;52.126;11.616;2022-12-28T10:24:34;7.70;82.10
18365;DHT22;9309;52.126;11.616;2022-12-28T10:27:04;7.90;81.20
18365;DHT22;9309;52.126;11.616;2022-12-28T10:29:32;7.80;81.50
18365;DHT22;9309;52.126;11.616;2022-12-28T10:32:01;7.80;81.80
18365;DHT22;9309;52.126;11.616;2022-12-28T10:34:29;7.80;81.60
18365;DHT22;9309;52.126;11.616;2022-12-28T10:37:04;7.80;81.60
18365;DHT22;9309;52.126;11.616;2022-12-28T10:39:31;7.90;81.80
18365;DHT22;9309;52.126;11.616;2022-12-28T10:41:59;8.00;81.20
18365;DHT22;9309;52.126;11.616;2022-12-28T10:44:29;8.00;81.30
18365;DHT22;9309;52.126;11.616;2022-12-28T10:46:58;8.10;81.00
18365;DHT22;9309;52.126;11.616;2022-12-28T10:49:27;8.20;80.90
18365;DHT22;9309;52.126;11.616;2022-12-28T10:52:00;8.20;80.90
18365;DHT22;9309;52.126;11.616;2022-12-28T10:54:30;8.40;80.00
18365;DHT22;9309;52.126;11.616;2022-12-28T10:56:57;8.40;80.00
18365;DHT22;9309;52.126;11.616;2022-12-28T10:59:26;8.40;79.80
18365;DHT22;9309;52.126;11.616;2022-12-28T11:01:54;8.60;78.80
18365;DHT22;9309;52.126;11.616;2022-12-28T11:04:23;8.80;78.60
18365;DHT22;9309;52.126;11.616;2022-12-28T11:06:51;8.80;78.20
18365;DHT22;9309;52.126;11.616;2022-12-28T11:09:22;8.90;78.00
18365;DHT22;9309;52.126;11.616;2022-12-28T11:11:50;8.90;77.60
18365;DHT22;9309;52.126;11.616;2022-12-28T11:14:25;8.90;77.20
18365;DHT22;9309;52.126;11.616;2022-12-28T11:16:54;8.90;77.70
18365;DHT22;9309;52.126;11.616;2022-12-28T11:19:22;9.00;76.90
18365;DHT22;9309;52.126;11.616;2022-12-28T11:21:50;8.90;77.20
18365;DHT22;9309;52.126;11.616;2022-12-28T11:24:17;9.00;76.60
18365;DHT22;9309;52.126;11.616;2022-12-28T11:26:48;9.00;76.80
18365;DHT22;9309;52.126;11.616;2022-12-28T11:29:17;9.00;76.70
18365;DHT22;9309;52.126;11.616;2022-12-28T11:31:47;8.90;77.20
18365;DHT22;9309;52.126;11.616;2022-12-28T11:34:17;8.90;76.90
18365;DHT22;9309;52.126;11.616;2022-12-28T11:36:45;8.80;78.20
18365;DHT22;9309;52.126;11.616;2022-12-28T11:39:46;8.80;78.10
18365;DHT22;9309;52.126;11.616;2022-12-28T11:45:47;8.80;78.10
18365;DHT22;9309;52.126;11.616;2022-12-28T11:48:46;8.80;78.10
18365;DHT22;9309;52.126;11.616;2022-12-28T11:51:15;8.80;78.40
18365;DHT22;9309;52.126;11.616;2022-12-28T11:53:53;8.60;79.00
18365;DHT22;9309;52.126;11.616;2022-12-28T11:56:24;8.70;78.80
18365;DHT22;9309;52.126;11.616;2022-12-28T11:59:12;8.70;79.00
18365;DHT22;9309;52.126;11.616;2022-12-28T12:01:50;8.70;78.90
18365;DHT22;9309;52.126;11.616;2022-12-28T12:04:41;8.80;78.50
18365;DHT22;9309;52.126;11.616;2022-12-28T12:07:24;8.90;78.40
18365;DHT22;9309;52.126;11.616;2022-12-28T12:12:55;8.80;78.90
18365;DHT22;9309;52.126;11.616;2022-12-28T12:15:32;8.80;79.00
18365;DHT22;9309;52.126;11.616;2022-12-28T12:18:01;8.80;78.80
18365;DHT22;9309;52.126;11.616;2022-12-28T12:20:54;8.80;79.10
18365;DHT22;9309;52.126;11.616;2022-12-28T12:23:33;8.80;79.00
18365;DHT22;9309;52.126;11.616;2022-12-28T12:26:15;8.90;78.20
18365;DHT22;9309;52.126;11.616;2022-12-28T12:28:44;8.90;78.40
18365;DHT22;9309;52.126;11.616;2022-12-28T12:31:16;9.00;78.40
18365;DHT22;9309;52.126;11.616;2022-12-28T12:33:46;9.10;77.60
18365;DHT22;9309;52.126;11.616;2022-12-28T12:36:33;9.00;78.20
18365;DHT22;9309;52.126;11.616;2022-12-28T12:39:20;9.10;77.80
18365;DHT22;9309;52.126;11.616;2022-12-28T12:41:58;9.40;77.40
18365;DHT22;9309;52.126;11.616;2022-12-28T12:44:30;9.50;76.20
18365;DHT22;9309;52.126;11.616;2022-12-28T12:47:41;9.50;76.40
18365;DHT22;9309;52.126;11.616;2022-12-28T12:50:32;9.50;76.50
18365;DHT22;9309;52.126;11.616;2022-12-28T12:53:04;9.60;76.40
18365;DHT22;9309;52.126;11.616;2022-12-28T12:55:50;9.40;77.00
18365;DHT22;9309;52.126;11.616;2022-12-28T12:58:23;9.30;77.50
18365;DHT22;9309;52.126;11.616;2022-12-28T13:01:08;9.30;77.70
18365;DHT22;9309;52.126;11.616;2022-12-28T13:03:43;9.30;77.80
18365;DHT22;9309;52.126;11.616;2022-12-28T13:06:13;9.20;77.80
18365;DHT22;9309;52.126;11.616;2022-12-28T13:08:45;9.30;78.00
18365;DHT22;9309;52.126;11.616;2022-12-28T13:11:14;9.10;78.50
18365;DHT22;9309;52.126;11.616;2022-12-28T13:13:44;9.10;78.70
18365;DHT22;9309;52.126;11.616;2022-12-28T13:16:15;9.10;78.80
18365;DHT22;9309;52.126;11.616;2022-12-28T13:18:53;9.20;78.20
18365;DHT22;9309;52.126;11.616;2022-12-28T13:21:21;9.20;78.80
18365;DHT22;9309;52.126;11.616;2022-12-28T13:23:49;9.00;78.80
18365;DHT22;9309;52.126;11.616;2022-12-28T13:26:16;9.10;79.10
18365;DHT22;9309;52.126;11.616;2022-12-28T13:28:50;9.10;78.90
18365;DHT22;9309;52.126;11.616;2022-12-28T13:31:19;9.30;78.20
18365;DHT22;9309;52.126;11.616;2022-12-28T13:33:58;9.50;77.40
18365;DHT22;9309;52.126;11.616;2022-12-28T13:36:25;9.50;77.00
18365;DHT22;9309;52.126;11.616;2022-12-28T13:39:10;9.60;76.50
18365;DHT22;9309;52.126;11.616;2022-12-28T13:41:37;9.40;76.90
18365;DHT22;9309;52.126;11.616;2022-12-28T13:44:15;9.20;77.40
18365;DHT22;9309;52.126;11.616;2022-12-28T13:46:46;9.40;76.50
18365;DHT22;9309;52.126;11.616;2022-12-28T13:49:16;9.40;76.70
18365;DHT22;9309;52.126;11.616;2022-12-28T13:51:43;9.20;77.10
18365;DHT22;9309;52.126;11.616;2022-12-28T13:54:10;9.10;77.50
18365;DHT22;9309;52.126;11.616;2022-12-28T13:56:40;9.20;77.10
18365;DHT22;9309;52.126;11.616;2022-12-28T13:59:09;9.20;77.40
18365;DHT22;9309;52.126;11.616;2022-12-28T14:01:39;9.20;77.30
18365;DHT22;9309;52.126;11.616;2022-12-28T14:04:09;9.10;77.40
18365;DHT22;9309;52.126;11.616;2022-12-28T14:06:38;9.00;77.70
18365;DHT22;9309;52.126;11.616;2022-12-28T14:09:05;9.10;77.70
18365;DHT22;9309;52.126;11.616;2022-12-28T14:11:35;9.20;77.20
18365;DHT22;9309;52.126;11.616;2022-12-28T14:14:02;9.10;77.50
18365;DHT22;9309;52.126;11.616;2022-12-28T14:16:30;9.10;77.60
18365;DHT22;9309;52.126;11.616;2022-12-28T14:18:57;9.00;77.80
18365;DHT22;9309;52.126;11.616;2022-12-28T14:21:31;9.10;77.30
18365;DHT22;9309;52.126;11.616;2022-12-28T14:24:04;8.90;78.30
18365;DHT22;9309;52.126;11.616;2022-12-28T14:26:32;9.00;78.20
18365;DHT22;9309;52.126;11.616;2022-12-28T14:29:00;8.90;78.30
18365;DHT22;9309;52.126;11.616;2022-12-28T14:31:28;9.00;78.00
18365;DHT22;9309;52.126;11.616;2022-12-28T14:33:57;9.00;77.80
18365;DHT22;9309;52.126;11.616;2022-12-28T14:36:27;8.90;78.10
18365;DHT22;9309;52.126;11.616;2022-12-28T14:38:56;8.80;78.70
18365;DHT22;9309;52.126;11.616;2022-12-28T14:41:28;8.70;79.10
18365;DHT22;9309;52.126;11.616;2022-12-28T14:43:58;8.70;79.10
18365;DHT22;9309;52.126;11.616;2022-12-28T14:46:31;8.60;79.20
18365;DHT22;9309;52.126;11.616;2022-12-28T14:48:59;8.60;79.50
18365;DHT22;9309;52.126;11.616;2022-12-28T14:51:29;8.70;78.90
18365;DHT22;9309;52.126;11.616;2022-12-28T14:54:17;8.80;78.70
18365;DHT22;9309;52.126;11.616;2022-12-28T14:56:49;8.70;79.10
18365;DHT22;9309;52.126;11.616;2022-12-28T14:59:21;8.60;79.40
18365;DHT22;9309;52.126;11.616;2022-12-28T15:01:49;8.50;79.90
18365;DHT22;9309;52.126;11.616;2022-12-28T15:04:32;8.60;79.70
18365;DHT22;9309;52.126;11.616;2022-12-28T15:07:00;8.60;80.00
18365;DHT22;9309;52.126;11.616;2022-12-28T15:09:28;8.50;80.40
18365;DHT22;9309;52.126;11.616;2022-12-28T15:12:10;8.50;80.70
18365;DHT22;9309;52.126;11.616;2022-12-28T15:14:37;8.40;80.80
18365;DHT22;9309;52.126;11.616;2022-12-28T15:17:04;8.40;80.90
18365;DHT22;9309;52.126;11.616;2022-12-28T15:19:30;8.40;81.00
18365;DHT22;9309;52.126;11.616;2022-12-28T15:21:58;8.40;81.10
18365;DHT22;9309;52.126;11.616;2022-12-28T15:24:24;8.30;81.20
18365;DHT22;9309;52.126;11.616;2022-12-28T15:26:51;8.30;81.30
18365;DHT22;9309;52.126;11.616;2022-12-28T15:29:19;8.40;81.20
18365;DHT22;9309;52.126;11.616;2022-12-28T15:31:46;8.30;81.10
18365;DHT22;9309;52.126;11.616;2022-12-28T15:34:13;8.30;81.20
18365;DHT22;9309;52.126;11.616;2022-12-28T15:36:39;8.40;80.40
18365;DHT22;9309;52.126;11.616;2022-12-28T15:39:09;8.40;80.50
18365;DHT22;9309;52.126;11.616;2022-12-28T15:41:36;8.40;80.30
18365;DHT22;9309;52.126;11.616;2022-12-28T15:44:12;8.40;80.20
18365;DHT22;9309;52.126;11.616;2022-12-28T15:46:40;8.40;80.50
18365;DHT22;9309;52.126;11.616;2022-12-28T15:49:09;8.40;80.50
18365;DHT22;9309;52.126;11.616;2022-12-28T15:51:36;8.40;80.40
18365;DHT22;9309;52.126;11.616;2022-12-28T15:54:03;8.40;79.90
18365;DHT22;9309;52.126;11.616;2022-12-28T15:56:31;8.40;79.90
18365;DHT22;9309;52.126;11.616;2022-12-28T15:58:59;8.50;79.60
18365;DHT22;9309;52.126;11.616;2022-12-28T16:01:28;8.40;80.00
18365;DHT22;9309;52.126;11.616;2022-12-28T16:03:58;8.40;80.10
18365;DHT22;9309;52.126;11.616;2022-12-28T16:06:26;8.40;80.30
18365;DHT22;9309;52.126;11.616;2022-12-28T16:08:54;8.40;80.50
18365;DHT22;9309;52.126;11.616;2022-12-28T16:11:22;8.40;80.40
18365;DHT22;9309;52.126;11.616;2022-12-28T16:13:50;8.30;80.50
18365;DHT22;9309;52.126;11.616;2022-12-28T16:16:17;8.30;80.10
18365;DHT22;9309;52.126;11.616;2022-12-28T16:18:44;8.40;79.90
18365;DHT22;9309;52.126;11.616;2022-12-28T16:21:12;8.40;79.80
18365;DHT22;9309;52.126;11.616;2022-12-28T16:23:41;8.50;78.90
18365;DHT22;9309;52.126;11.616;2022-12-28T16:26:09;8.50;78.60